Time;durP1;ratioP1;P1;durP2;ratioP2;P2;SDS_P1;SDS_P2;PMS_P1;PMS_P2;Temp;Humidity;BMP_temperature;BMP_pressure;BME280_temperature;BME280_humidity;BME280_pressure;Samples;Min_cycle;Max_cycle;Signal;HPM_P1;HPM_P2
2021/08/20 00:17:43;;;;;;;12.23;6.10;;;;;;;;;;4270771;28;20417;-69
2021/08/20 00:20:10;;;;;;;12.90;5.93;;;;;;;;;;4208704;33;20120;-69
2021/08/20 00:22:35;;;;;;;15.80;5.28;;;;;;;;;;4207402;34;20548;-69
2021/08/20 00:25:01;;;;;;;11.82;6.03;;;;;;;;;;4219219;34;20109;-69
2021/08/20 00:27:27;;;;;;;10.88;6.05;;;;;;;;;;4194783;34;20101;-70
2021/08/20 00:29:53;;;;;;;9.40;5.87;;;;;;;;;;4183444;34;20109;-69
2021/08/20 00:32:19;;;;;;;13.15;5.95;;;;;;;;;;4219610;34;20463;-69
2021/08/20 00:34:45;;;;;;;11.38;5.90;;;;;;;;;;4194705;34;20109;-69
2021/08/20 00:37:12;;;;;;;13.60;6.45;;;;;;;;;;4183295;34;20120;-68
2021/08/20 00:39:39;;;;;;;11.25;5.87;;;;;;;;;;4183645;34;20136;-70
2021/08/20 00:42:06;;;;;;;15.57;6.62;;;;;;;;;;4195128;34;20085;-69
2021/08/20 00:44:32;;;;;;;12.37;5.87;;;;;;;;;;4183740;34;20146;-69
2021/08/20 00:46:58;;;;;;;10.85;6.05;;;;;;;;;;4194898;34;20105;-69
2021/08/20 00:49:24;;;;;;;15.20;6.10;;;;;;;;;;4171446;34;20129;-69
2021/08/20 00:51:51;;;;;;;12.57;5.75;;;;;;;;;;4171852;34;20135;-69
2021/08/20 00:54:18;;;;;;;15.20;6.10;;;;;;;;;;4171832;34;20125;-68
2021/08/20 00:56:46;;;;;;;12.35;6.22;;;;;;;;;;4172023;34;20561;-69
2021/08/20 00:59:13;;;;;;;9.43;5.90;;;;;;;;;;4183575;34;20128;-68
2021/08/20 01:01:39;;;;;;;13.40;5.55;;;;;;;;;;4183038;34;20128;-68
2021/08/20 01:04:05;;;;;;;14.23;6.72;;;;;;;;;;4183171;34;20196;-69
2021/08/20 01:06:31;;;;;;;9.57;5.82;;;;;;;;;;4194320;34;20121;-69
2021/08/20 01:08:57;;;;;;;13.05;5.53;;;;;;;;;;4183678;34;20121;-69
2021/08/20 01:11:24;;;;;;;13.40;5.85;;;;;;;;;;4183002;34;20465;-69
2021/08/20 01:13:50;;;;;;;14.50;6.00;;;;;;;;;;4182983;34;20094;-69
2021/08/20 01:16:16;;;;;;;11.48;6.85;;;;;;;;;;4193986;34;20552;-69
2021/08/20 01:18:43;;;;;;;15.57;5.72;;;;;;;;;;4194957;33;20116;-68
2021/08/20 01:21:16;;;;;;;9.00;5.03;;;;;;;;;;4197939;33;20151;-68
2021/08/20 01:23:44;;;;;;;14.03;5.53;;;;;;;;;;4197121;33;20121;-69
2021/08/20 01:26:10;;;;;;;8.80;5.57;;;;;;;;;;4185619;33;20207;-69
2021/08/20 01:28:36;;;;;;;18.42;5.47;;;;;;;;;;4185425;33;20130;-69
2021/08/20 01:31:04;;;;;;;11.12;5.20;;;;;;;;;;4173433;33;20232;-69
2021/08/20 01:33:30;;;;;;;13.62;5.30;;;;;;;;;;4195506;33;20102;-68
2021/08/20 01:35:56;;;;;;;12.60;4.85;;;;;;;;;;4208129;33;20524;-69
2021/08/20 01:38:23;;;;;;;10.18;5.43;;;;;;;;;;4196528;33;20132;-69
2021/08/20 01:40:49;;;;;;;14.55;5.65;;;;;;;;;;4207880;33;20099;-68
2021/08/20 01:43:15;;;;;;;14.82;5.70;;;;;;;;;;4196545;33;20097;-69
2021/08/20 01:45:42;;;;;;;13.23;5.25;;;;;;;;;;4184708;33;20127;-69
2021/08/20 01:48:08;;;;;;;9.85;5.25;;;;;;;;;;4208151;33;20109;-69
2021/08/20 01:50:37;;;;;;;18.25;5.20;;;;;;;;;;4207803;33;20528;-69
2021/08/20 01:53:04;;;;;;;12.95;5.03;;;;;;;;;;4172027;34;20105;-69
2021/08/20 01:55:30;;;;;;;11.60;5.28;;;;;;;;;;4171209;34;20416;-70
2021/08/20 01:57:55;;;;;;;18.60;5.30;;;;;;;;;;4171033;34;20125;-70
2021/08/20 02:00:21;;;;;;;11.43;5.82;;;;;;;;;;4205066;34;20216;-68
2021/08/20 02:02:47;;;;;;;11.35;5.47;;;;;;;;;;4205886;34;20209;-69
2021/08/20 02:05:13;;;;;;;11.82;5.30;;;;;;;;;;4195844;34;20117;-69
2021/08/20 02:07:40;;;;;;;8.77;5.30;;;;;;;;;;4207739;34;20141;-68
2021/08/20 02:10:07;;;;;;;11.32;5.10;;;;;;;;;;4185084;34;20601;-69
2021/08/20 02:12:34;;;;;;;14.43;5.72;;;;;;;;;;4184457;34;20533;-70
2021/08/20 02:15:00;;;;;;;11.30;5.22;;;;;;;;;;4184593;34;20093;-68
2021/08/20 02:17:26;;;;;;;11.00;5.05;;;;;;;;;;4186935;33;20218;-69
2021/08/20 02:19:52;;;;;;;9.82;5.53;;;;;;;;;;4198492;33;20215;-69
2021/08/20 02:22:18;;;;;;;21.73;6.18;;;;;;;;;;4209951;33;20105;-67
2021/08/20 02:24:44;;;;;;;8.90;5.10;;;;;;;;;;4198410;33;20196;-68
2021/08/20 02:27:10;;;;;;;9.48;4.97;;;;;;;;;;4209324;33;20120;-68
2021/08/20 02:29:36;;;;;;;14.87;4.90;;;;;;;;;;4186904;33;20202;-68
2021/08/20 02:32:02;;;;;;;9.77;5.10;;;;;;;;;;4197975;33;20152;-67
2021/08/20 02:34:28;;;;;;;11.12;5.40;;;;;;;;;;4197975;33;20140;-68
2021/08/20 02:36:54;;;;;;;16.60;5.87;;;;;;;;;;4220972;33;20548;-68
2021/08/20 02:39:33;;;;;;;10.40;4.95;;;;;;;;;;4194298;33;21832;-68
2021/08/20 02:42:00;;;;;;;7.72;4.70;;;;;;;;;;4192588;34;20117;-68
2021/08/20 02:48:01;;;;;;;10.80;4.87;;;;;;;;;;4198451;34;20114;-68
2021/08/20 02:50:27;;;;;;;9.75;4.65;;;;;;;;;;4181829;34;20110;-66
2021/08/20 02:52:53;;;;;;;9.70;5.30;;;;;;;;;;4193459;34;20110;-65
2021/08/20 02:55:21;;;;;;;13.00;4.90;;;;;;;;;;4170472;34;20121;-67
2021/08/20 02:57:47;;;;;;;11.55;6.15;;;;;;;;;;4193646;34;20101;-71
2021/08/20 03:00:13;;;;;;;10.07;4.95;;;;;;;;;;4183363;34;20102;-68
2021/08/20 03:02:39;;;;;;;17.75;6.18;;;;;;;;;;4170996;34;20390;-71
2021/08/20 03:05:06;;;;;;;17.30;5.45;;;;;;;;;;4170501;34;20129;-67
2021/08/20 03:07:32;;;;;;;14.63;5.47;;;;;;;;;;4193305;34;20221;-71
2021/08/20 03:09:58;;;;;;;11.63;5.30;;;;;;;;;;4170230;34;20144;-68
2021/08/20 03:12:24;;;;;;;9.43;4.68;;;;;;;;;;4181069;34;20237;-68
2021/08/20 03:14:52;;;;;;;10.02;5.53;;;;;;;;;;4169476;34;20110;-68
2021/08/20 03:17:18;;;;;;;15.52;5.68;;;;;;;;;;4170454;34;20112;-68
2021/08/20 03:19:44;;;;;;;18.92;5.80;;;;;;;;;;4192730;34;20132;-67
2021/08/20 03:22:10;;;;;;;15.80;5.80;;;;;;;;;;4159240;34;20184;-70
2021/08/20 03:24:36;;;;;;;21.33;5.82;;;;;;;;;;4170151;34;20136;-67
2021/08/20 03:27:02;;;;;;;11.63;5.20;;;;;;;;;;4181539;34;20118;-69
2021/08/20 03:29:28;;;;;;;11.50;5.95;;;;;;;;;;4181445;34;20110;-66
2021/08/20 03:31:54;;;;;;;16.08;5.68;;;;;;;;;;4170363;34;20128;-68
2021/08/20 03:34:20;;;;;;;8.50;4.78;;;;;;;;;;4170249;34;20200;-69
2021/08/20 03:36:46;;;;;;;10.82;6.00;;;;;;;;;;4170333;34;20133;-69
2021/08/20 03:39:12;;;;;;;10.20;5.18;;;;;;;;;;4170050;34;20229;-69
2021/08/20 03:41:38;;;;;;;13.10;5.30;;;;;;;;;;4147561;34;20566;-69
2021/08/20 03:44:04;;;;;;;15.68;5.68;;;;;;;;;;4192944;34;20140;-69
2021/08/20 03:46:30;;;;;;;18.77;5.35;;;;;;;;;;4181054;34;20505;-70
2021/08/20 03:48:56;;;;;;;16.45;5.32;;;;;;;;;;4181607;34;20118;-69
2021/08/20 03:51:22;;;;;;;8.40;4.75;;;;;;;;;;4181263;34;20525;-69
2021/08/20 03:53:48;;;;;;;9.40;4.85;;;;;;;;;;4181327;34;20192;-69
2021/08/20 03:56:14;;;;;;;16.40;5.20;;;;;;;;;;4181405;34;20200;-69
2021/08/20 03:58:40;;;;;;;8.48;5.20;;;;;;;;;;4169771;34;20126;-67
2021/08/20 04:01:08;;;;;;;10.50;4.75;;;;;;;;;;4170172;34;20143;-69
2021/08/20 04:03:34;;;;;;;9.93;4.68;;;;;;;;;;4195742;34;20132;-69
2021/08/20 04:06:01;;;;;;;11.82;5.95;;;;;;;;;;4181313;34;20522;-70
2021/08/20 04:08:26;;;;;;;9.23;4.87;;;;;;;;;;4181434;34;20110;-69
2021/08/20 04:10:52;;;;;;;16.90;7.22;;;;;;;;;;4192771;34;20121;-69
2021/08/20 04:13:18;;;;;;;12.63;5.10;;;;;;;;;;4181340;34;20158;-70
2021/08/20 04:15:44;;;;;;;12.02;5.32;;;;;;;;;;4180819;34;20129;-70
2021/08/20 04:18:10;;;;;;;16.30;4.90;;;;;;;;;;4169747;34;20118;-69
2021/08/20 04:20:36;;;;;;;13.80;5.15;;;;;;;;;;4181253;34;20398;-71
2021/08/20 04:23:05;;;;;;;19.37;5.28;;;;;;;;;;4169853;34;20501;-69
2021/08/20 04:25:31;;;;;;;16.42;4.70;;;;;;;;;;4169444;34;20126;-70
2021/08/20 04:27:57;;;;;;;10.57;5.03;;;;;;;;;;4192547;34;20457;-68
2021/08/20 04:30:23;;;;;;;11.27;4.70;;;;;;;;;;4180817;34;20132;-68
2021/08/20 04:32:50;;;;;;;11.70;4.85;;;;;;;;;;4181086;34;20144;-67
2021/08/20 04:35:16;;;;;;;15.00;4.30;;;;;;;;;;4169624;34;20473;-67
2021/08/20 04:37:42;;;;;;;12.50;5.75;;;;;;;;;;4180899;34;20129;-68
2021/08/20 04:40:08;;;;;;;12.80;4.80;;;;;;;;;;4158445;34;20125;-68
2021/08/20 04:42:37;;;;;;;11.05;4.90;;;;;;;;;;4158067;34;20544;-68
2021/08/20 04:45:04;;;;;;;10.57;5.03;;;;;;;;;;4181073;34;20112;-70
2021/08/20 04:47:30;;;;;;;11.12;4.95;;;;;;;;;;4169311;34;20110;-68
2021/08/20 04:49:56;;;;;;;14.20;4.90;;;;;;;;;;4181192;34;20102;-68
2021/08/20 04:52:22;;;;;;;6.18;3.47;;;;;;;;;;4181188;34;20133;-68
2021/08/20 04:54:48;;;;;;;14.77;4.62;;;;;;;;;;4169488;34;20121;-68
2021/08/20 04:57:14;;;;;;;11.65;4.50;;;;;;;;;;4180637;34;20101;-68
2021/08/20 04:59:40;;;;;;;13.82;4.60;;;;;;;;;;4181005;34;20129;-68
2021/08/20 05:02:07;;;;;;;11.25;4.20;;;;;;;;;;4169591;34;20494;-66
2021/08/20 05:04:34;;;;;;;9.88;4.72;;;;;;;;;;4180631;34;20205;-65
2021/08/20 05:07:00;;;;;;;11.30;5.03;;;;;;;;;;4157876;34;20141;-71
2021/08/20 05:09:26;;;;;;;18.00;4.78;;;;;;;;;;4192011;34;20130;-71
2021/08/20 05:11:52;;;;;;;11.07;3.92;;;;;;;;;;4181007;34;20118;-71
2021/08/20 05:14:18;;;;;;;16.08;4.60;;;;;;;;;;4180818;34;20549;-72
2021/08/20 05:16:47;;;;;;;8.38;4.40;;;;;;;;;;4169060;34;20626;-71
2021/08/20 05:19:16;;;;;;;18.33;5.10;;;;;;;;;;4180556;34;20533;-71
2021/08/20 05:21:42;;;;;;;15.30;5.00;;;;;;;;;;4191659;34;20117;-70
2021/08/20 05:24:08;;;;;;;9.20;4.50;;;;;;;;;;4192069;34;20432;-71
2021/08/20 05:26:34;;;;;;;12.00;5.53;;;;;;;;;;4180219;34;20190;-70
2021/08/20 05:29:00;;;;;;;9.43;5.12;;;;;;;;;;4180505;34;20098;-70
2021/08/20 05:31:26;;;;;;;11.18;5.18;;;;;;;;;;4191696;34;20105;-69
2021/08/20 05:33:52;;;;;;;18.83;5.03;;;;;;;;;;4180612;34;20118;-70
2021/08/20 05:36:18;;;;;;;15.32;5.78;;;;;;;;;;4169623;34;20474;-68
2021/08/20 05:38:44;;;;;;;21.20;8.30;;;;;;;;;;4193858;34;20596;-69
2021/08/20 05:41:10;;;;;;;10.00;6.43;;;;;;;;;;4159940;34;20533;-72
2021/08/20 05:43:37;;;;;;;11.00;7.22;;;;;;;;;;4171314;34;20130;-70
2021/08/20 05:46:03;;;;;;;15.90;7.70;;;;;;;;;;4182235;34;20133;-68
2021/08/20 05:48:29;;;;;;;18.52;6.97;;;;;;;;;;4182431;34;20117;-69
2021/08/20 05:50:54;;;;;;;14.15;8.18;;;;;;;;;;4193736;34;20184;-68
2021/08/20 05:53:21;;;;;;;19.12;8.45;;;;;;;;;;4182033;34;20125;-68
2021/08/20 05:55:48;;;;;;;10.68;7.18;;;;;;;;;;4182219;34;20126;-71
2021/08/20 05:58:13;;;;;;;17.65;7.68;;;;;;;;;;4170778;34;20098;-71
2021/08/20 06:00:40;;;;;;;13.77;8.30;;;;;;;;;;4159629;34;20109;-70
2021/08/20 06:03:06;;;;;;;16.73;6.78;;;;;;;;;;4182124;34;20129;-69
2021/08/20 06:05:32;;;;;;;12.45;7.20;;;;;;;;;;4170401;34;20205;-70
2021/08/20 06:07:58;;;;;;;15.65;6.25;;;;;;;;;;4204907;34;20130;-71
2021/08/20 06:10:24;;;;;;;11.82;6.82;;;;;;;;;;4193131;34;20491;-71
2021/08/20 06:12:50;;;;;;;16.42;7.55;;;;;;;;;;4181983;34;20144;-71
2021/08/20 06:15:16;;;;;;;13.13;7.15;;;;;;;;;;4170791;34;20201;-70
2021/08/20 06:17:42;;;;;;;16.40;7.55;;;;;;;;;;4182137;34;20156;-71
2021/08/20 06:20:09;;;;;;;16.85;8.57;;;;;;;;;;4182727;34;20117;-72
2021/08/20 06:22:35;;;;;;;18.83;9.52;;;;;;;;;;4182732;34;20101;-71
2021/08/20 06:25:01;;;;;;;17.35;7.45;;;;;;;;;;4194673;34;20215;-71
2021/08/20 06:27:30;;;;;;;15.98;7.70;;;;;;;;;;4183951;34;20477;-71
2021/08/20 06:29:56;;;;;;;24.73;10.88;;;;;;;;;;4185381;34;20129;-70
2021/08/20 06:32:22;;;;;;;14.32;8.10;;;;;;;;;;4182843;34;20101;-71
2021/08/20 06:34:48;;;;;;;23.23;9.85;;;;;;;;;;4193969;34;20113;-72
2021/08/20 06:37:14;;;;;;;20.92;9.45;;;;;;;;;;4193228;34;20099;-72
2021/08/20 06:39:40;;;;;;;16.48;7.53;;;;;;;;;;4193284;34;20132;-72
2021/08/20 06:42:06;;;;;;;20.55;7.60;;;;;;;;;;4181831;34;20113;-73
2021/08/20 06:44:32;;;;;;;19.67;8.70;;;;;;;;;;4170726;34;20175;-72
2021/08/20 06:46:58;;;;;;;22.05;10.25;;;;;;;;;;4192821;34;20131;-74
2021/08/20 06:49:24;;;;;;;25.90;9.23;;;;;;;;;;4181620;34;20110;-73
2021/08/20 06:51:50;;;;;;;18.67;9.90;;;;;;;;;;4182270;34;20113;-73
2021/08/20 06:54:16;;;;;;;16.37;9.00;;;;;;;;;;4171307;34;20118;-73
2021/08/20 06:56:43;;;;;;;20.55;8.50;;;;;;;;;;4170580;34;20141;-75
2021/08/20 06:59:09;;;;;;;19.23;9.35;;;;;;;;;;4193685;34;20204;-71
2021/08/20 07:01:35;;;;;;;18.20;9.65;;;;;;;;;;4170444;34;20133;-72
2021/08/20 07:04:01;;;;;;;20.23;9.77;;;;;;;;;;4182033;34;20528;-72
2021/08/20 07:06:27;;;;;;;26.30;10.05;;;;;;;;;;4181994;34;20114;-75
2021/08/20 07:08:55;;;;;;;23.55;9.93;;;;;;;;;;4159332;34;20114;-74
2021/08/20 07:11:22;;;;;;;18.35;10.13;;;;;;;;;;4170592;34;20114;-74
2021/08/20 07:13:48;;;;;;;17.62;9.63;;;;;;;;;;4182116;34;20538;-75
2021/08/20 07:16:14;;;;;;;20.33;10.52;;;;;;;;;;4182125;34;20102;-75
2021/08/20 07:18:40;;;;;;;24.73;10.50;;;;;;;;;;4182173;34;20145;-77
2021/08/20 07:21:06;;;;;;;23.73;10.85;;;;;;;;;;4193473;34;20102;-74
2021/08/20 07:23:32;;;;;;;22.27;10.90;;;;;;;;;;4205982;34;20133;-72
2021/08/20 07:25:59;;;;;;;22.33;8.98;;;;;;;;;;4192989;34;20132;-73
2021/08/20 07:28:26;;;;;;;21.05;11.25;;;;;;;;;;4171144;34;20213;-73
2021/08/20 07:30:52;;;;;;;18.95;9.88;;;;;;;;;;4193168;34;20236;-73
2021/08/20 07:33:19;;;;;;;25.37;10.23;;;;;;;;;;4204490;34;20531;-71
2021/08/20 07:35:44;;;;;;;16.70;8.52;;;;;;;;;;4158683;34;20118;-72
2021/08/20 07:38:10;;;;;;;16.10;7.70;;;;;;;;;;4192832;34;20536;-72
2021/08/20 07:40:36;;;;;;;18.80;8.57;;;;;;;;;;4192639;34;20241;-73
2021/08/20 07:43:02;;;;;;;26.62;9.60;;;;;;;;;;4192619;34;20137;-71
2021/08/20 07:45:29;;;;;;;24.40;9.82;;;;;;;;;;4169906;34;20501;-73
2021/08/20 07:47:55;;;;;;;16.83;9.20;;;;;;;;;;4181166;34;20098;-72
2021/08/20 07:50:21;;;;;;;25.60;9.93;;;;;;;;;;4192673;34;20105;-71
2021/08/20 07:52:47;;;;;;;17.70;9.30;;;;;;;;;;4181384;34;20111;-72
2021/08/20 07:55:14;;;;;;;21.33;8.63;;;;;;;;;;4181438;34;20205;-73
2021/08/20 07:57:47;;;;;;;15.80;9.82;;;;;;;;;;4192843;34;20110;-73
2021/08/20 08:00:14;;;;;;;27.95;10.23;;;;;;;;;;4169345;34;20279;-73
2021/08/20 08:02:40;;;;;;;20.60;10.05;;;;;;;;;;4192620;34;20098;-72
2021/08/20 08:05:06;;;;;;;18.67;8.88;;;;;;;;;;4181461;34;20110;-71
2021/08/20 08:07:32;;;;;;;29.52;10.88;;;;;;;;;;4192658;34;20189;-71
2021/08/20 08:09:58;;;;;;;18.25;9.88;;;;;;;;;;4181389;34;20094;-72
2021/08/20 08:12:24;;;;;;;17.05;9.38;;;;;;;;;;4192469;34;20101;-72
2021/08/20 08:14:50;;;;;;;18.58;8.73;;;;;;;;;;4192480;34;20104;-72
2021/08/20 08:17:16;;;;;;;21.45;8.63;;;;;;;;;;4169553;34;20608;-73
2021/08/20 08:19:42;;;;;;;21.52;9.38;;;;;;;;;;4192954;34;20214;-73
2021/08/20 08:22:08;;;;;;;14.55;9.00;;;;;;;;;;4194283;34;20518;-71
2021/08/20 08:24:34;;;;;;;16.75;8.55;;;;;;;;;;4192404;34;20205;-73
2021/08/20 08:26:59;;;;;;;17.12;8.88;;;;;;;;;;4158777;34;20141;-74
2021/08/20 08:29:25;;;;;;;24.63;8.23;;;;;;;;;;4204209;34;20145;-73
2021/08/20 08:31:52;;;;;;;13.80;7.90;;;;;;;;;;4192375;34;20307;-72
2021/08/20 08:34:18;;;;;;;17.25;8.25;;;;;;;;;;4158655;34;20548;-74
2021/08/20 08:36:44;;;;;;;14.40;7.40;;;;;;;;;;4169779;34;20517;-71
2021/08/20 08:39:10;;;;;;;16.98;10.35;;;;;;;;;;4180799;34;20202;-73
2021/08/20 08:41:36;;;;;;;21.05;8.63;;;;;;;;;;4180691;34;20114;-74
2021/08/20 08:44:03;;;;;;;12.02;7.97;;;;;;;;;;4192001;34;20125;-73
2021/08/20 08:46:29;;;;;;;17.02;8.27;;;;;;;;;;4169341;34;20113;-72
2021/08/20 08:48:56;;;;;;;14.15;9.02;;;;;;;;;;4169476;34;20157;-73
2021/08/20 08:51:21;;;;;;;17.70;9.70;;;;;;;;;;4180956;34;20126;-71
2021/08/20 08:53:48;;;;;;;15.80;9.70;;;;;;;;;;4169413;34;20133;-72
2021/08/20 08:56:20;;;;;;;17.85;9.80;;;;;;;;;;4180838;34;20106;-74
2021/08/20 08:58:46;;;;;;;13.13;8.40;;;;;;;;;;4169729;34;20524;-73
2021/08/20 09:01:32;;;;;;;16.10;9.15;;;;;;;;;;4180739;34;20124;-72
2021/08/20 09:04:19;;;;;;;18.15;9.18;;;;;;;;;;4158969;34;20209;-73
2021/08/20 09:06:55;;;;;;;11.82;7.55;;;;;;;;;;4169482;34;20193;-76
2021/08/20 09:09:23;;;;;;;14.23;7.68;;;;;;;;;;4181577;34;20094;-73
2021/08/20 09:11:52;;;;;;;13.02;6.70;;;;;;;;;;4180056;34;20120;-73
2021/08/20 09:14:18;;;;;;;16.45;8.10;;;;;;;;;;4181238;34;20122;-72
2021/08/20 09:16:45;;;;;;;15.60;7.03;;;;;;;;;;4180543;34;20104;-75
2021/08/20 09:19:12;;;;;;;15.38;8.15;;;;;;;;;;4180651;34;20105;-74
2021/08/20 09:21:43;;;;;;;11.10;5.82;;;;;;;;;;4169369;34;20189;-74
2021/08/20 09:24:29;;;;;;;14.38;8.10;;;;;;;;;;4180753;34;20212;-74
2021/08/20 09:27:14;;;;;;;19.40;8.20;;;;;;;;;;4192254;34;20137;-74
2021/08/20 09:30:04;;;;;;;13.68;7.25;;;;;;;;;;4192110;34;20116;-74
2021/08/20 09:32:30;;;;;;;17.05;7.80;;;;;;;;;;4191777;34;20140;-74
2021/08/20 09:34:58;;;;;;;19.87;9.80;;;;;;;;;;4180574;34;20108;-74
2021/08/20 09:37:25;;;;;;;11.43;7.37;;;;;;;;;;4180579;34;20140;-74
2021/08/20 09:39:57;;;;;;;13.35;7.57;;;;;;;;;;4180570;34;20098;-74
2021/08/20 09:42:23;;;;;;;12.50;7.40;;;;;;;;;;4180613;34;20110;-71
2021/08/20 09:45:12;;;;;;;15.57;7.15;;;;;;;;;;4180268;34;20108;-69
2021/08/20 09:47:46;;;;;;;14.13;7.37;;;;;;;;;;4204185;34;20126;-73
2021/08/20 09:50:13;;;;;;;15.00;7.93;;;;;;;;;;4169469;34;20105;-73
2021/08/20 09:52:39;;;;;;;17.95;8.13;;;;;;;;;;4157706;34;20215;-74
2021/08/20 09:55:05;;;;;;;16.65;8.05;;;;;;;;;;4191624;34;20117;-73
2021/08/20 09:57:32;;;;;;;16.23;7.62;;;;;;;;;;4168855;34;20137;-73
2021/08/20 09:59:58;;;;;;;15.85;9.18;;;;;;;;;;4180336;34;20114;-73
2021/08/20 10:02:29;;;;;;;11.40;7.20;;;;;;;;;;4169073;34;20132;-72
2021/08/20 10:04:56;;;;;;;17.45;8.07;;;;;;;;;;4181081;34;20093;-76
2021/08/20 10:07:23;;;;;;;15.10;6.65;;;;;;;;;;4169550;34;20130;-74
2021/08/20 10:09:49;;;;;;;17.77;9.88;;;;;;;;;;4191184;34;20106;-76
2021/08/20 10:12:23;;;;;;;12.25;7.53;;;;;;;;;;4179798;34;20165;-71
2021/08/20 10:14:50;;;;;;;18.67;7.50;;;;;;;;;;4149729;34;20110;-76
2021/08/20 10:17:16;;;;;;;11.27;7.32;;;;;;;;;;4174047;34;20133;-73
2021/08/20 10:19:43;;;;;;;14.15;8.52;;;;;;;;;;4182539;34;20097;-68
2021/08/20 10:22:10;;;;;;;13.02;7.20;;;;;;;;;;4191330;34;20450;-69
2021/08/20 10:24:36;;;;;;;18.48;8.85;;;;;;;;;;4170736;34;20206;-70
2021/08/20 10:27:05;;;;;;;17.35;7.30;;;;;;;;;;4181980;34;20560;-69
2021/08/20 10:29:33;;;;;;;10.13;6.78;;;;;;;;;;4159953;34;20113;-68
2021/08/20 10:32:01;;;;;;;12.90;8.40;;;;;;;;;;4182191;34;20097;-68
2021/08/20 10:34:39;;;;;;;12.35;8.45;;;;;;;;;;4182372;34;20521;-69
2021/08/20 10:37:13;;;;;;;22.00;9.50;;;;;;;;;;4182473;34;20304;-68
2021/08/20 10:39:44;;;;;;;15.85;8.60;;;;;;;;;;4193643;34;20157;-68
2021/08/20 10:42:11;;;;;;;13.45;8.40;;;;;;;;;;4193469;34;20152;-68
2021/08/20 10:44:41;;;;;;;12.77;8.27;;;;;;;;;;4159454;34;20129;-68
2021/08/20 10:47:08;;;;;;;14.50;8.90;;;;;;;;;;4181478;34;20110;-69
2021/08/20 10:49:38;;;;;;;13.52;9.10;;;;;;;;;;4170539;34;20106;-69
2021/08/20 10:52:05;;;;;;;11.45;7.75;;;;;;;;;;4193529;34;20118;-68
2021/08/20 10:54:30;;;;;;;22.52;12.88;;;;;;;;;;4206272;34;20132;-70
2021/08/20 10:57:00;;;;;;;17.48;10.20;;;;;;;;;;4204848;34;20218;-70
2021/08/20 10:59:47;;;;;;;21.50;8.68;;;;;;;;;;4193328;34;20108;-69
2021/08/20 11:02:19;;;;;;;14.70;8.18;;;;;;;;;;4193426;34;20133;-69
2021/08/20 11:05:01;;;;;;;12.68;8.65;;;;;;;;;;4193055;34;20105;-69
2021/08/20 11:07:40;;;;;;;14.07;8.20;;;;;;;;;;4206165;34;20097;-69
2021/08/20 11:10:09;;;;;;;15.50;9.13;;;;;;;;;;4193351;34;20129;-69
2021/08/20 11:12:51;;;;;;;12.85;8.75;;;;;;;;;;4192913;34;20181;-67
2021/08/20 11:15:26;;;;;;;13.40;7.30;;;;;;;;;;4181524;34;20122;-69
2021/08/20 11:18:05;;;;;;;20.50;8.98;;;;;;;;;;4193026;34;20224;-67
2021/08/20 11:20:35;;;;;;;13.52;8.23;;;;;;;;;;4180025;34;20110;-67
2021/08/20 11:23:07;;;;;;;16.75;8.82;;;;;;;;;;4179222;34;20101;-69
2021/08/20 11:25:40;;;;;;;13.38;7.95;;;;;;;;;;4190606;34;20134;-67
2021/08/20 11:28:27;;;;;;;12.88;7.28;;;;;;;;;;4192112;34;20090;-69
2021/08/20 11:30:57;;;;;;;12.63;6.68;;;;;;;;;;4192200;34;20147;-69
2021/08/20 11:33:36;;;;;;;12.63;6.78;;;;;;;;;;4190374;34;20126;-69
2021/08/20 11:36:04;;;;;;;12.20;8.05;;;;;;;;;;4178482;34;20128;-69
2021/08/20 11:38:32;;;;;;;12.35;7.07;;;;;;;;;;4178979;34;20197;-70
2021/08/20 11:41:04;;;;;;;16.23;6.20;;;;;;;;;;4201991;34;20121;-70
2021/08/20 11:43:34;;;;;;;16.10;8.65;;;;;;;;;;4200078;34;20121;-68
2021/08/20 11:46:03;;;;;;;15.77;7.82;;;;;;;;;;4178791;34;20133;-67
2021/08/20 11:48:29;;;;;;;10.00;6.93;;;;;;;;;;4190548;34;20090;-71
2021/08/20 11:50:57;;;;;;;18.30;7.50;;;;;;;;;;4178986;34;20226;-72
2021/08/20 11:53:24;;;;;;;15.10;6.55;;;;;;;;;;4180220;34;20214;-72
2021/08/20 11:55:51;;;;;;;16.65;7.35;;;;;;;;;;4181148;34;20114;-72
2021/08/20 11:58:27;;;;;;;10.43;6.00;;;;;;;;;;4169973;34;20121;-69
2021/08/20 12:00:54;;;;;;;13.65;6.10;;;;;;;;;;4180825;34;20542;-69
2021/08/20 12:03:20;;;;;;;16.77;7.22;;;;;;;;;;4175277;34;20182;-74
2021/08/20 12:05:46;;;;;;;14.87;6.00;;;;;;;;;;4167265;34;20197;-73
2021/08/20 12:08:14;;;;;;;14.18;6.30;;;;;;;;;;4178893;34;20732;-71
2021/08/20 12:10:43;;;;;;;11.20;6.07;;;;;;;;;;4193851;34;20474;-74
2021/08/20 12:13:15;;;;;;;9.38;4.12;;;;;;;;;;4157700;34;20514;-74
2021/08/20 12:15:41;;;;;;;11.43;5.60;;;;;;;;;;4169522;34;20133;-75
2021/08/20 12:18:18;;;;;;;10.45;5.95;;;;;;;;;;4169675;34;20128;-73
2021/08/20 12:20:44;;;;;;;12.93;5.40;;;;;;;;;;4192384;34;20514;-70
2021/08/20 12:23:10;;;;;;;9.52;5.40;;;;;;;;;;4192460;34;20114;-72
2021/08/20 12:25:39;;;;;;;11.45;5.45;;;;;;;;;;4163374;34;20128;-67
2021/08/20 12:28:15;;;;;;;12.13;5.03;;;;;;;;;;4168904;34;20522;-70
2021/08/20 12:30:42;;;;;;;12.40;5.75;;;;;;;;;;4200754;34;20149;-71
2021/08/20 12:33:08;;;;;;;13.23;5.60;;;;;;;;;;4176942;34;20137;-71
2021/08/20 12:35:38;;;;;;;15.73;5.20;;;;;;;;;;4185438;34;20447;-71
2021/08/20 12:38:19;;;;;;;20.10;5.15;;;;;;;;;;4182887;34;20534;-71
2021/08/20 12:41:21;;;;;;;7.62;4.65;;;;;;;;;;4201951;34;20137;-72
2021/08/20 12:43:47;;;;;;;12.18;5.18;;;;;;;;;;4177340;34;20485;-71
2021/08/20 12:46:16;;;;;;;8.75;4.80;;;;;;;;;;4171688;34;20126;-69
2021/08/20 12:48:53;;;;;;;9.10;4.95;;;;;;;;;;4171739;34;20438;-73
2021/08/20 12:51:19;;;;;;;5.32;3.50;;;;;;;;;;4179422;34;20372;-69
2021/08/20 12:53:45;;;;;;;10.85;5.15;;;;;;;;;;4191278;34;20163;-69
2021/08/20 12:56:11;;;;;;;13.52;4.90;;;;;;;;;;4195495;34;20392;-69
2021/08/20 12:58:38;;;;;;;15.35;4.97;;;;;;;;;;4179442;34;20089;-69
2021/08/20 13:01:08;;;;;;;9.95;5.18;;;;;;;;;;4178025;34;20634;-65
2021/08/20 13:03:35;;;;;;;7.93;4.20;;;;;;;;;;4176526;34;20466;-73
2021/08/20 13:06:10;;;;;;;12.27;5.43;;;;;;;;;;4176401;34;20090;-67
2021/08/20 13:08:36;;;;;;;10.15;5.05;;;;;;;;;;4191033;34;20124;-68
2021/08/20 13:11:03;;;;;;;11.10;5.55;;;;;;;;;;4184934;34;20141;-69
2021/08/20 13:13:30;;;;;;;9.30;4.68;;;;;;;;;;4169245;34;20108;-68
2021/08/20 13:15:56;;;;;;;9.35;5.20;;;;;;;;;;4184161;34;20102;-67
2021/08/20 13:18:23;;;;;;;12.30;5.70;;;;;;;;;;4150648;34;20102;-73
2021/08/20 13:20:50;;;;;;;10.68;5.65;;;;;;;;;;4155627;34;20114;-71
2021/08/20 13:23:16;;;;;;;17.40;5.72;;;;;;;;;;4168009;34;20467;-67
2021/08/20 13:25:42;;;;;;;9.98;5.37;;;;;;;;;;4178136;34;20598;-65
2021/08/20 13:28:09;;;;;;;8.13;4.85;;;;;;;;;;4185570;34;20144;-69
2021/08/20 13:30:39;;;;;;;12.25;6.15;;;;;;;;;;4168084;34;20114;-68
2021/08/20 13:33:05;;;;;;;12.45;5.32;;;;;;;;;;4178366;34;20541;-71
2021/08/20 13:35:32;;;;;;;10.95;6.12;;;;;;;;;;4168450;34;20121;-72
2021/08/20 13:37:59;;;;;;;10.55;5.87;;;;;;;;;;4156804;34;20526;-67
2021/08/20 13:40:25;;;;;;;11.20;5.25;;;;;;;;;;4185450;34;20105;-74
2021/08/20 13:42:51;;;;;;;8.23;5.25;;;;;;;;;;4155266;34;20150;-67
2021/08/20 13:45:18;;;;;;;14.18;5.50;;;;;;;;;;4185406;34;20110;-68
2021/08/20 13:47:44;;;;;;;11.23;5.85;;;;;;;;;;4166720;34;20205;-68
2021/08/20 13:50:10;;;;;;;10.65;5.28;;;;;;;;;;4166600;34;20134;-66
2021/08/20 13:52:36;;;;;;;12.05;5.55;;;;;;;;;;4177969;34;20107;-66
2021/08/20 13:55:03;;;;;;;9.73;5.60;;;;;;;;;;4155441;34;20114;-68
2021/08/20 13:57:31;;;;;;;13.30;6.07;;;;;;;;;;4167538;34;20170;-67
2021/08/20 13:59:57;;;;;;;13.50;5.50;;;;;;;;;;4180263;34;20121;-67
2021/08/20 14:02:24;;;;;;;9.57;4.97;;;;;;;;;;4179774;34;20101;-71
2021/08/20 14:04:50;;;;;;;13.70;6.07;;;;;;;;;;4168493;34;20582;-70
2021/08/20 14:07:16;;;;;;;11.40;5.07;;;;;;;;;;4168287;34;20286;-69
2021/08/20 14:09:42;;;;;;;8.68;4.55;;;;;;;;;;4179749;34;20128;-68
2021/08/20 14:12:08;;;;;;;14.45;5.60;;;;;;;;;;4191044;34;20209;-70
2021/08/20 14:14:34;;;;;;;9.73;4.70;;;;;;;;;;4179554;34;20129;-69
2021/08/20 14:17:00;;;;;;;10.65;5.12;;;;;;;;;;4168519;34;20091;-64
2021/08/20 14:19:26;;;;;;;15.93;5.20;;;;;;;;;;4192501;34;20242;-68
2021/08/20 14:21:52;;;;;;;12.80;5.72;;;;;;;;;;4179493;34;20105;-68
2021/08/20 14:24:19;;;;;;;14.13;5.47;;;;;;;;;;4168572;34;20205;-67
2021/08/20 14:26:45;;;;;;;12.10;5.70;;;;;;;;;;4179551;34;20133;-70
2021/08/20 14:29:11;;;;;;;8.07;5.22;;;;;;;;;;4181844;34;20120;-70
2021/08/20 14:31:38;;;;;;;9.45;5.15;;;;;;;;;;4193275;34;20711;-68
2021/08/20 14:34:04;;;;;;;9.32;5.47;;;;;;;;;;4170597;34;20118;-67
2021/08/20 14:36:31;;;;;;;15.00;5.18;;;;;;;;;;4170559;34;20144;-69
2021/08/20 14:38:57;;;;;;;16.95;6.65;;;;;;;;;;4181941;34;20184;-70
2021/08/20 14:41:23;;;;;;;11.15;5.07;;;;;;;;;;4193184;34;20101;-67
2021/08/20 14:43:49;;;;;;;9.85;5.47;;;;;;;;;;4170779;34;20133;-67
2021/08/20 14:46:15;;;;;;;14.18;5.85;;;;;;;;;;4170221;34;20141;-69
2021/08/20 14:48:41;;;;;;;17.73;5.82;;;;;;;;;;4181717;34;20126;-64
2021/08/20 14:51:08;;;;;;;14.55;5.75;;;;;;;;;;4181871;34;20232;-62
2021/08/20 14:53:34;;;;;;;20.55;6.32;;;;;;;;;;4182160;34;20116;-67